Time;durP1;ratioP1;P1;durP2;ratioP2;P2;SDS_P1;SDS_P2;PMS_P1;PMS_P2;Temp;Humidity;BMP_temperature;BMP_pressure;BME280_temperature;BME280_humidity;BME280_pressure;Samples;Min_cycle;Max_cycle;Signal;HPM_P1;HPM_P2
2023/03/25 00:09:10;;;;;;;6.6;4.1;;;;;;;11.7;76;97680;;;;
2023/03/25 00:19:10;;;;;;;6.6;4.1;;;;;;;11.7;75.5;97660;;;;
2023/03/25 00:30:11;;;;;;;6.6;4.1;;;;;;;11.8;74.9;97650;;;;
2023/03/25 00:40:11;;;;;;;7.8;4.3;;;;;;;11.9;74.6;97640;;;;
2023/03/25 00:51:12;;;;;;;7.8;4.3;;;;;;;11.9;74.6;97640;;;;
2023/03/25 01:01:12;;;;;;;7.8;4.3;;;;;;;12;75.1;97650;;;;
2023/03/25 01:12:10;;;;;;;5.7;3.5;;;;;;;12.2;75;97650;;;;
2023/03/25 01:23:10;;;;;;;5.7;3.5;;;;;;;12.2;75.1;97650;;;;
2023/03/25 01:33:11;;;;;;;8.5;4.6;;;;;;;12.2;75.2;97650;;;;
2023/03/25 01:43:12;;;;;;;8.5;4.6;;;;;;;12.3;75.4;97640;;;;
2023/03/25 01:53:10;;;;;;;8.5;4.6;;;;;;;12.3;75.4;97640;;;;
2023/03/25 02:03:10;;;;;;;10.9;6.6;;;;;;;12.3;75.6;97630;;;;
2023/03/25 02:13:10;;;;;;;10.9;6.6;;;;;;;12.4;75.9;97620;;;;
2023/03/25 02:23:10;;;;;;;10.9;6.6;;;;;;;12.4;75.9;97630;;;;
2023/03/25 02:34:11;;;;;;;10.8;7.2;;;;;;;12.5;76;97630;;;;
2023/03/25 02:45:10;;;;;;;10.8;7.2;;;;;;;12.6;75.8;97640;;;;
2023/03/25 02:55:10;;;;;;;10.8;7.2;;;;;;;12.6;75.9;97640;;;;
2023/03/25 03:05:12;;;;;;;9.8;6.6;;;;;;;12.7;76.4;97650;;;;
2023/03/25 03:15:10;;;;;;;9.8;6.6;;;;;;;12.7;77.2;97650;;;;
2023/03/25 03:25:11;;;;;;;9.8;6.6;;;;;;;12.6;78.1;97650;;;;
2023/03/25 03:36:12;;;;;;;14.4;10.5;;;;;;;12.5;79.1;97670;;;;
2023/03/25 03:47:11;;;;;;;14.4;10.5;;;;;;;12.4;80;97690;;;;
2023/03/25 03:57:10;;;;;;;14.4;10.5;;;;;;;12.4;79.7;97690;;;;
2023/03/25 04:08:10;;;;;;;12.3;8.1;;;;;;;12.4;78.4;97700;;;;
2023/03/25 04:18:10;;;;;;;12.3;8.1;;;;;;;12.3;77.6;97720;;;;
2023/03/25 04:29:12;;;;;;;12.3;8.1;;;;;;;12;72.8;97720;;;;
2023/03/25 04:39:10;;;;;;;7.8;4.3;;;;;;;11.8;71.8;97730;;;;
2023/03/25 04:50:11;;;;;;;7.8;4.3;;;;;;;11.6;72.3;97740;;;;
2023/03/25 05:00:10;;;;;;;7.8;4.3;;;;;;;11.4;72.8;97740;;;;
2023/03/25 05:11:10;;;;;;;7;3.2;;;;;;;11.3;74.9;97760;;;;
2023/03/25 05:21:11;;;;;;;7;3.2;;;;;;;11.2;76.8;97760;;;;
2023/03/25 05:32:12;;;;;;;9.5;5.2;;;;;;;11.1;77.1;97770;;;;
2023/03/25 05:43:10;;;;;;;9.5;5.2;;;;;;;11.1;77;97770;;;;
2023/03/25 05:54:12;;;;;;;9.5;5.2;;;;;;;11.1;76.6;97780;;;;
2023/03/25 06:04:11;;;;;;;9.8;5.8;;;;;;;11.1;76.4;97770;;;;
2023/03/25 06:15:11;;;;;;;9.8;5.8;;;;;;;11.3;76.4;97790;;;;
2023/03/25 06:26:10;;;;;;;9.8;5.8;;;;;;;11.5;75.8;97800;;;;
2023/03/25 06:36:10;;;;;;;11.9;7.8;;;;;;;11.7;74.8;97790;;;;
2023/03/25 06:46:11;;;;;;;11.9;7.8;;;;;;;11.8;73.9;97800;;;;
2023/03/25 06:57:11;;;;;;;11.9;7.8;;;;;;;12;73.1;97810;;;;
2023/03/25 07:08:12;;;;;;;8.7;4.8;;;;;;;12.2;72.7;97800;;;;
2023/03/25 07:19:10;;;;;;;8.7;4.8;;;;;;;12.5;72;97800;;;;
2023/03/25 07:30:11;;;;;;;8.7;4.8;;;;;;;12.7;73.1;97800;;;;
2023/03/25 07:40:11;;;;;;;9.8;6.1;;;;;;;12.9;74.6;97800;;;;
2023/03/25 07:51:11;;;;;;;9.8;6.1;;;;;;;13.1;73.9;97780;;;;
2023/03/25 08:02:11;;;;;;;13.4;9.7;;;;;;;13.4;72.8;97780;;;;
2023/03/25 08:13:10;;;;;;;13.4;9.7;;;;;;;13.4;70.6;97790;;;;
2023/03/25 08:24:12;;;;;;;13.4;9.7;;;;;;;13.6;69.4;97790;;;;
2023/03/25 08:34:10;;;;;;;9.4;6.3;;;;;;;13.8;67.6;97780;;;;
2023/03/25 08:45:11;;;;;;;9.4;6.3;;;;;;;14.1;64.7;97780;;;;
2023/03/25 08:56:11;;;;;;;9.4;6.3;;;;;;;14.7;61.7;97780;;;;
2023/03/25 09:07:11;;;;;;;7.9;4.1;;;;;;;15.3;59.3;97770;;;;
2023/03/25 09:17:10;;;;;;;7.9;4.1;;;;;;;15.8;57;97750;;;;
2023/03/25 09:27:11;;;;;;;7.9;4.1;;;;;;;16.4;55.4;97730;;;;
2023/03/25 09:38:11;;;;;;;6.4;3.2;;;;;;;16.2;54.1;97720;;;;
2023/03/25 09:48:11;;;;;;;6.4;3.2;;;;;;;16.7;51.9;97720;;;;
2023/03/25 09:59:11;;;;;;;6.4;3.2;;;;;;;16.5;52.9;97700;;;;
2023/03/25 10:09:10;;;;;;;5.9;2.6;;;;;;;16.8;54.1;97690;;;;
2023/03/25 10:19:14;;;;;;;5.9;2.6;;;;;;;16;52.5;97690;;;;
2023/03/25 10:30:11;;;;;;;5.9;2.6;;;;;;;16.3;53.2;97680;;;;
2023/03/25 10:40:11;;;;;;;5.7;2.9;;;;;;;15.8;52;97680;;;;
2023/03/25 10:51:11;;;;;;;5.7;2.9;;;;;;;15.6;55.3;97660;;;;
2023/03/25 11:01:11;;;;;;;5.7;2.9;;;;;;;15.8;52.6;97630;;;;
2023/03/25 11:11:11;;;;;;;7.4;3.3;;;;;;;16.1;52.2;97630;;;;
2023/03/25 11:21:11;;;;;;;7.4;3.3;;;;;;;16.1;52.8;97640;;;;
2023/03/25 11:31:11;;;;;;;7.4;3.3;;;;;;;16.4;50.1;97610;;;;
2023/03/25 11:42:11;;;;;;;9;3.8;;;;;;;16;51.1;97620;;;;
2023/03/25 11:52:11;;;;;;;9;3.8;;;;;;;16.6;46.3;97600;;;;
2023/03/25 12:02:11;;;;;;;5.3;2.4;;;;;;;17.2;48.2;97600;;;;
2023/03/25 12:13:11;;;;;;;5.3;2.4;;;;;;;16.9;48.3;97610;;;;
2023/03/25 12:23:12;;;;;;;5.3;2.4;;;;;;;16.5;50.5;97610;;;;
2023/03/25 12:33:11;;;;;;;5.5;1.8;;;;;;;16;52.6;97620;;;;
2023/03/25 12:44:11;;;;;;;5.5;1.8;;;;;;;15.3;54.8;97660;;;;
2023/03/25 12:55:11;;;;;;;5.5;1.8;;;;;;;13.9;56.9;97670;;;;
2023/03/25 13:05:11;;;;;;;6.6;2.7;;;;;;;13.6;57.4;97650;;;;
2023/03/25 13:15:11;;;;;;;6.6;2.7;;;;;;;13.4;57.1;97640;;;;
2023/03/25 13:26:11;;;;;;;6.6;2.7;;;;;;;13.5;56.7;97630;;;;
2023/03/25 13:37:11;;;;;;;3.8;2;;;;;;;14.4;55.4;97620;;;;
2023/03/25 13:47:11;;;;;;;3.8;2;;;;;;;15.2;53.7;97600;;;;
2023/03/25 13:57:11;;;;;;;3.8;2;;;;;;;15.5;52.4;97600;;;;
2023/03/25 14:08:11;;;;;;;5.3;2.4;;;;;;;15.6;52.2;97600;;;;
2023/03/25 14:18:11;;;;;;;5.3;2.4;;;;;;;15.5;53.2;97590;;;;
2023/03/25 14:28:11;;;;;;;5.3;2.4;;;;;;;15.1;53.5;97590;;;;
2023/03/25 14:39:11;;;;;;;7.9;3.9;;;;;;;15;52.4;97600;;;;
2023/03/25 14:49:12;;;;;;;7.9;3.9;;;;;;;15.1;52.2;97600;;;;
2023/03/25 15:00:12;;;;;;;7.9;3.9;;;;;;;14.8;52.8;97600;;;;
2023/03/25 15:11:11;;;;;;;9.7;4.1;;;;;;;14.6;53.7;97600;;;;
2023/03/25 15:21:11;;;;;;;9.7;4.1;;;;;;;14;51.7;97610;;;;
2023/03/25 15:32:11;;;;;;;4.7;1.8;;;;;;;13.6;51.5;97610;;;;
2023/03/25 15:42:11;;;;;;;4.7;1.8;;;;;;;13.4;51.4;97620;;;;
2023/03/25 15:52:11;;;;;;;4.7;1.8;;;;;;;13.2;52.1;97630;;;;
2023/03/25 16:03:11;;;;;;;6.9;3.2;;;;;;;12.9;54;97640;;;;
2023/03/25 16:14:11;;;;;;;6.9;3.2;;;;;;;12.8;55.6;97650;;;;
2023/03/25 16:24:11;;;;;;;6.9;3.2;;;;;;;12.6;57.2;97660;;;;
2023/03/25 16:35:11;;;;;;;7.9;3.4;;;;;;;13.8;55.8;97660;;;;
2023/03/25 16:45:13;;;;;;;7.9;3.4;;;;;;;13.7;54.8;97660;;;;
2023/03/25 16:56:12;;;;;;;7.9;3.4;;;;;;;12.8;56.9;97660;;;;
2023/03/25 17:07:11;;;;;;;8.2;5;;;;;;;12.1;59.4;97680;;;;
2023/03/25 17:17:11;;;;;;;8.2;5;;;;;;;11.6;61;97680;;;;
2023/03/25 17:27:11;;;;;;;8.2;5;;;;;;;11.3;62.2;97690;;;;
2023/03/25 17:38:11;;;;;;;14.3;5.4;;;;;;;11.1;62.3;97690;;;;
2023/03/25 17:48:11;;;;;;;14.3;5.4;;;;;;;11;62.8;97710;;;;
2023/03/25 17:58:11;;;;;;;14.3;5.4;;;;;;;10.9;63;97710;;;;
2023/03/25 18:09:11;;;;;;;9.3;5.2;;;;;;;10.6;63.9;97710;;;;
2023/03/25 18:19:11;;;;;;;9.3;5.2;;;;;;;10.6;64.6;97720;;;;
2023/03/25 18:30:11;;;;;;;9.3;5.2;;;;;;;10.6;65;97710;;;;
2023/03/25 18:40:11;;;;;;;17.6;7.5;;;;;;;10.5;65.7;97710;;;;
2023/03/25 18:50:11;;;;;;;17.6;7.5;;;;;;;10.5;66.1;97710;;;;
2023/03/25 19:00:12;;;;;;;17.6;7.5;;;;;;;10.5;66.3;97720;;;;
2023/03/25 19:11:11;;;;;;;17;9.7;;;;;;;10.4;66.4;97730;;;;
2023/03/25 19:21:11;;;;;;;17;9.7;;;;;;;10.1;66.2;97720;;;;
2023/03/25 19:31:12;;;;;;;17;9.7;;;;;;;10;67.1;97720;;;;
2023/03/25 19:42:11;;;;;;;14.7;9.3;;;;;;;10;67.8;97730;;;;
2023/03/25 19:52:11;;;;;;;14.7;9.3;;;;;;;10;66.7;97730;;;;
2023/03/25 20:02:11;;;;;;;13.2;8.4;;;;;;;9.8;66.9;97730;;;;
2023/03/25 20:12:11;;;;;;;13.2;8.4;;;;;;;9.5;66.8;97730;;;;
2023/03/25 20:23:11;;;;;;;13.2;8.4;;;;;;;9.1;67.8;97720;;;;
2023/03/25 20:34:11;;;;;;;11;6.1;;;;;;;8.8;68.3;97720;;;;
2023/03/25 20:44:11;;;;;;;11;6.1;;;;;;;8.5;69.8;97730;;;;
2023/03/25 20:55:11;;;;;;;11;6.1;;;;;;;8.4;71.7;97740;;;;
2023/03/25 21:06:13;;;;;;;13.1;6.8;;;;;;;8.8;70.7;97730;;;;
2023/03/25 21:16:11;;;;;;;13.1;6.8;;;;;;;9;68.9;97740;;;;
2023/03/25 21:26:12;;;;;;;13.1;6.8;;;;;;;9.1;68.5;97750;;;;
2023/03/25 21:36:11;;;;;;;15.4;7.8;;;;;;;9.2;67.1;97740;;;;
2023/03/25 21:47:13;;;;;;;15.4;7.8;;;;;;;9.1;67.8;97750;;;;
2023/03/25 21:58:11;;;;;;;15.4;7.8;;;;;;;9.1;67.5;97770;;;;
2023/03/25 22:08:11;;;;;;;12.8;8;;;;;;;9.3;65.8;97770;;;;
2023/03/25 22:18:11;;;;;;;12.8;8;;;;;;;9.5;64.9;97780;;;;
2023/03/25 22:28:11;;;;;;;12.8;8;;;;;;;9.6;64.5;97800;;;;
2023/03/25 22:38:11;;;;;;;5.7;2.9;;;;;;;9.6;64.8;97820;;;;
2023/03/25 22:48:11;;;;;;;5.7;2.9;;;;;;;9.3;65.1;97820;;;;
2023/03/25 22:58:11;;;;;;;5.7;2.9;;;;;;;9;66.2;97820;;;;
2023/03/25 23:08:11;;;;;;;6.2;2.7;;;;;;;8.8;66.5;97820;;;;
2023/03/25 23:18:11;;;;;;;6.2;2.7;;;;;;;8.5;66.9;97800;;;;
2023/03/25 23:29:11;;;;;;;6.2;2.7;;;;;;;8.2;67.8;97800;;;;
2023/03/25 23:39:11;;;;;;;2.2;1.2;;;;;;;8;68.9;97800;;;;
2023/03/25 23:49:11;;;;;;;2.2;1.2;;;;;;;8.1;69.4;97800;;;;
